createdAt,value
2018-01-19T00:00:57.469Z,6.93
2018-01-19T00:03:24.952Z,8.00
2018-01-19T00:05:53.596Z,8.07
2018-01-19T00:08:21.888Z,7.80
2018-01-19T00:10:49.349Z,7.90
2018-01-19T00:13:17.032Z,7.77
2018-01-19T00:15:44.722Z,7.70
2018-01-19T00:18:18.794Z,8.73
2018-01-19T00:20:46.424Z,7.60
2018-01-19T00:23:18.582Z,8.87
2018-01-19T00:25:47.158Z,8.83
2018-01-19T00:28:15.694Z,9.37
2018-01-19T00:30:43.193Z,9.53
2018-01-19T00:33:11.482Z,8.60
2018-01-19T00:35:39.834Z,8.63
2018-01-19T00:38:07.506Z,9.97
2018-01-19T00:40:35.688Z,9.60
2018-01-19T00:43:03.979Z,10.37
2018-01-19T00:45:32.553Z,11.10
2018-01-19T00:48:00.116Z,11.27
2018-01-19T00:50:28.905Z,11.57
2018-01-19T00:52:57.400Z,10.90
2018-01-19T00:55:25.672Z,12.67
2018-01-19T00:57:53.436Z,11.73
2018-01-19T01:00:21.162Z,11.30
2018-01-19T01:02:48.929Z,11.93
2018-01-19T01:05:17.243Z,11.73
2018-01-19T01:07:46.416Z,12.80
2018-01-19T01:10:14.450Z,13.63
2018-01-19T01:12:42.048Z,13.47
2018-01-19T01:15:09.674Z,13.03
2018-01-19T01:17:37.694Z,14.17
2018-01-19T01:20:06.098Z,15.77
2018-01-19T01:22:34.562Z,17.77
2018-01-19T01:25:02.826Z,18.97
2018-01-19T01:27:30.525Z,20.63
2018-01-19T01:29:58.511Z,19.97
2018-01-19T01:32:25.981Z,20.70
2018-01-19T01:34:54.313Z,20.40
2018-01-19T01:37:24.071Z,20.27
2018-01-19T01:39:51.676Z,20.60
2018-01-19T01:42:19.145Z,20.60
2018-01-19T01:44:46.750Z,19.27
2018-01-19T01:47:15.459Z,19.37
2018-01-19T01:49:42.951Z,19.33
2018-01-19T01:52:11.410Z,18.10
2018-01-19T01:54:38.853Z,17.10
2018-01-19T01:57:06.360Z,15.87
2018-01-19T01:59:34.671Z,15.97
2018-01-19T02:02:02.136Z,15.20
2018-01-19T02:04:29.631Z,15.10
2018-01-19T02:06:57.152Z,14.90
2018-01-19T02:09:24.724Z,16.60
2018-01-19T02:11:52.347Z,16.03
2018-01-19T02:14:20.744Z,17.07
2018-01-19T02:16:48.661Z,15.50
2018-01-19T02:19:16.274Z,15.10
2018-01-19T02:21:43.951Z,13.40
2018-01-19T02:24:11.435Z,15.00
2018-01-19T02:26:39.625Z,14.63
2018-01-19T02:29:08.133Z,13.47
2018-01-19T02:31:36.862Z,13.73
2018-01-19T02:34:05.021Z,14.80
2018-01-19T02:36:32.649Z,14.60
2018-01-19T02:39:01.032Z,13.40
2018-01-19T02:41:29.975Z,12.37
2018-01-19T02:43:57.720Z,13.00
2018-01-19T02:46:26.215Z,12.00
2018-01-19T02:48:55.215Z,11.57
2018-01-19T02:51:24.407Z,11.33
2018-01-19T02:53:52.096Z,11.20
2018-01-19T02:56:19.827Z,10.70
2018-01-19T02:58:47.632Z,11.47
2018-01-19T03:01:15.096Z,11.23
2018-01-19T03:03:42.651Z,11.30
2018-01-19T03:06:10.271Z,10.87
2018-01-19T03:08:37.825Z,9.30
2018-01-19T03:11:05.947Z,9.83
2018-01-19T03:13:33.517Z,10.43
2018-01-19T03:16:03.037Z,9.53
2018-01-19T03:18:31.421Z,8.97
2018-01-19T03:21:00.364Z,8.13
2018-01-19T03:23:27.937Z,9.20
2018-01-19T03:25:55.508Z,8.70
2018-01-19T03:28:23.120Z,9.47
2018-01-19T03:30:50.576Z,10.20
2018-01-19T03:33:18.138Z,9.60
2018-01-19T03:35:45.803Z,10.50
2018-01-19T03:38:13.850Z,9.73
2018-01-19T03:40:41.468Z,10.20
2018-01-19T03:43:09.818Z,10.70
2018-01-19T03:45:38.870Z,9.47
2018-01-19T03:48:07.090Z,11.67
2018-01-19T03:50:35.294Z,10.63
2018-01-19T03:53:04.709Z,11.17
2018-01-19T03:55:32.293Z,11.90
2018-01-19T03:58:00.237Z,11.80
2018-01-19T04:00:28.604Z,12.20
2018-01-19T04:02:56.209Z,12.00
2018-01-19T04:05:24.676Z,12.90
2018-01-19T04:07:52.551Z,11.30
2018-01-19T04:10:21.132Z,11.80
2018-01-19T04:12:48.659Z,12.10
2018-01-19T04:15:16.249Z,11.00
2018-01-19T04:17:43.826Z,10.43
2018-01-19T04:20:11.360Z,10.90
2018-01-19T04:22:38.838Z,12.07
2018-01-19T04:25:07.248Z,10.63
2018-01-19T04:27:34.825Z,10.50
2018-01-19T04:30:02.528Z,11.87
2018-01-19T04:32:30.099Z,12.50
2018-01-19T04:34:57.583Z,12.17
2018-01-19T04:37:25.889Z,11.87
2018-01-19T04:39:53.379Z,12.27
2018-01-19T04:42:20.889Z,12.50
2018-01-19T04:44:48.394Z,11.50
2018-01-19T04:47:16.140Z,11.53
2018-01-19T04:49:43.727Z,12.90
2018-01-19T04:52:12.954Z,11.40
2018-01-19T04:54:41.191Z,13.33
2018-01-19T04:57:08.892Z,12.67
2018-01-19T04:59:37.115Z,14.43
2018-01-19T05:02:05.258Z,13.60
2018-01-19T05:04:33.627Z,14.50
2018-01-19T05:07:01.876Z,14.27
2018-01-19T05:09:29.400Z,15.47
2018-01-19T05:11:56.957Z,13.70
2018-01-19T05:14:24.665Z,15.10
2018-01-19T05:16:52.252Z,14.63
2018-01-19T05:19:20.614Z,13.97
2018-01-19T05:21:48.138Z,13.73
2018-01-19T05:24:15.679Z,14.30
2018-01-19T05:26:44.171Z,14.30
2018-01-19T05:29:11.721Z,14.60
2018-01-19T05:31:39.405Z,15.00
2018-01-19T05:34:06.917Z,15.43
2018-01-19T05:36:35.478Z,14.37
2018-01-19T05:39:03.158Z,16.47
2018-01-19T05:41:31.526Z,17.77
2018-01-19T05:43:58.986Z,17.43
2018-01-19T05:46:27.307Z,17.67
2018-01-19T05:48:54.823Z,17.20
2018-01-19T05:51:22.423Z,19.37
2018-01-19T05:53:50.186Z,19.87
2018-01-19T05:56:17.688Z,19.03
2018-01-19T05:58:45.214Z,18.70
2018-01-19T06:01:12.723Z,20.20
2018-01-19T06:03:41.151Z,18.10
2018-01-19T06:06:08.679Z,19.47
2018-01-19T06:08:37.059Z,18.93
2018-01-19T06:11:05.387Z,17.73
2018-01-19T06:13:33.193Z,18.07
2018-01-19T06:16:01.791Z,19.17
2018-01-19T06:18:30.064Z,19.57
2018-01-19T06:20:58.337Z,19.37
2018-01-19T06:23:26.828Z,18.77
2018-01-19T06:25:54.425Z,18.70
2018-01-19T06:28:24.709Z,18.77
2018-01-19T06:35:27.225Z,14.47
2018-01-19T06:37:54.883Z,15.47
2018-01-19T06:40:22.386Z,12.90
2018-01-19T06:42:49.970Z,13.30
2018-01-19T06:45:17.497Z,12.13
2018-01-19T06:47:45.046Z,10.70
2018-01-19T06:50:12.611Z,11.43
2018-01-19T06:52:40.322Z,12.63
2018-01-19T06:55:08.101Z,12.60
2018-01-19T06:57:35.913Z,12.73
2018-01-19T07:00:04.648Z,13.20
2018-01-19T07:02:32.899Z,14.10
2018-01-19T07:05:00.865Z,13.63
2018-01-19T07:07:29.434Z,14.67
2018-01-19T07:09:57.103Z,13.47
2018-01-19T07:12:24.846Z,14.13
2018-01-19T07:14:52.460Z,14.10
2018-01-19T07:17:19.976Z,13.43
2018-01-19T07:19:47.579Z,31.13
2018-01-19T07:22:15.039Z,14.37
2018-01-19T07:24:42.812Z,15.60
2018-01-19T07:27:10.549Z,15.17
2018-01-19T07:29:38.116Z,13.30
2018-01-19T07:32:05.910Z,13.93
2018-01-19T07:34:34.287Z,14.10
2018-01-19T07:37:01.930Z,13.10
2018-01-19T07:39:29.426Z,14.10
2018-01-19T07:41:57.048Z,13.80
2018-01-19T07:44:24.711Z,12.73
2018-01-19T07:46:52.228Z,13.53
2018-01-19T07:49:19.735Z,13.70
2018-01-19T07:51:47.324Z,14.90
2018-01-19T07:54:15.564Z,14.40
2018-01-19T07:56:43.048Z,14.47
2018-01-19T07:59:10.577Z,15.83
2018-01-19T08:01:38.167Z,16.27
2018-01-19T08:04:05.740Z,14.93
2018-01-19T08:06:33.378Z,16.30
2018-01-19T08:09:00.973Z,15.97
2018-01-19T08:11:28.737Z,16.03
2018-01-19T08:13:57.243Z,15.53
2018-01-19T08:16:24.810Z,16.50
2018-01-19T08:18:52.423Z,14.90
2018-01-19T08:21:20.886Z,15.30
2018-01-19T08:23:48.475Z,15.93
2018-01-19T08:26:16.127Z,14.00
2018-01-19T08:28:44.277Z,15.70
2018-01-19T08:31:11.736Z,14.97
2018-01-19T08:33:39.398Z,14.53
2018-01-19T08:36:06.985Z,16.13
2018-01-19T08:38:34.532Z,15.53
2018-01-19T08:41:02.719Z,15.50
2018-01-19T08:43:30.300Z,14.80
2018-01-19T08:45:57.828Z,15.30
2018-01-19T08:48:25.401Z,16.37
2018-01-19T08:50:52.936Z,15.60
2018-01-19T08:53:20.529Z,15.60
2018-01-19T08:55:49.015Z,17.43
2018-01-19T08:58:16.623Z,15.20
2018-01-19T09:00:44.187Z,16.20
2018-01-19T09:03:11.850Z,15.60
2018-01-19T09:05:39.616Z,15.30
2018-01-19T09:08:07.419Z,16.10
2018-01-19T09:10:35.087Z,15.80
2018-01-19T09:13:03.428Z,16.63
2018-01-19T09:15:30.935Z,16.60
2018-01-19T09:17:58.576Z,16.03
2018-01-19T09:20:27.115Z,16.90
2018-01-19T09:22:54.678Z,15.20
2018-01-19T09:25:22.188Z,15.23
2018-01-19T09:27:50.431Z,14.80
2018-01-19T09:30:18.067Z,14.77
2018-01-19T09:32:45.580Z,12.97
2018-01-19T09:35:13.856Z,13.40
2018-01-19T09:37:42.283Z,12.47
2018-01-19T09:40:10.008Z,14.93
2018-01-19T09:42:38.429Z,11.93
2018-01-19T09:45:06.226Z,12.10
2018-01-19T09:47:33.894Z,12.60
2018-01-19T09:50:01.586Z,12.57
2018-01-19T09:52:29.941Z,12.60
2018-01-19T09:54:57.513Z,11.77
2018-01-19T09:57:25.944Z,13.43
2018-01-19T09:59:53.759Z,12.40
2018-01-19T10:02:22.106Z,12.90
2018-01-19T10:04:49.989Z,13.13
2018-01-19T10:07:17.641Z,12.43
2018-01-19T10:09:45.223Z,12.93
2018-01-19T10:12:13.720Z,12.17
2018-01-19T10:14:41.530Z,12.90
2018-01-19T10:17:09.563Z,12.90
2018-01-19T10:19:37.808Z,12.27
2018-01-19T10:22:05.293Z,12.53
2018-01-19T10:24:33.159Z,12.27
2018-01-19T10:27:01.886Z,14.23
2018-01-19T10:29:29.368Z,14.23
2018-01-19T10:31:56.849Z,14.17
2018-01-19T10:34:25.112Z,13.93
2018-01-19T10:36:53.458Z,14.00
2018-01-19T10:39:21.068Z,13.17
2018-01-19T10:41:48.611Z,14.13
2018-01-19T10:44:16.168Z,13.83
2018-01-19T10:46:43.676Z,14.40
2018-01-19T10:49:12.128Z,14.80
2018-01-19T10:51:41.950Z,15.47
2018-01-19T10:54:09.890Z,14.70
2018-01-19T10:56:38.471Z,14.13
2018-01-19T10:59:06.043Z,14.50
2018-01-19T11:01:33.915Z,13.33
2018-01-19T11:04:02.321Z,13.13
2018-01-19T11:06:30.586Z,12.03
2018-01-19T11:08:58.485Z,11.93
2018-01-19T11:11:25.992Z,12.10
2018-01-19T11:13:53.587Z,11.20
2018-01-19T11:16:22.357Z,11.17
2018-01-19T11:18:51.193Z,11.20
2018-01-19T11:21:19.690Z,10.57
2018-01-19T11:23:47.299Z,10.10
2018-01-19T11:26:15.564Z,9.67
2018-01-19T11:28:43.848Z,10.00
2018-01-19T11:31:11.330Z,16.00
2018-01-19T11:33:40.727Z,9.00
2018-01-19T11:36:08.997Z,10.57
2018-01-19T11:38:37.069Z,11.90
2018-01-19T11:41:05.436Z,10.20
2018-01-19T11:43:33.498Z,9.80
2018-01-19T11:46:01.136Z,9.60
2018-01-19T11:48:28.646Z,9.60
2018-01-19T11:50:56.942Z,9.73
2018-01-19T11:53:24.534Z,9.30
2018-01-19T11:55:52.545Z,9.40
2018-01-19T11:58:20.266Z,10.30
2018-01-19T12:00:47.900Z,9.30
2018-01-19T12:03:16.123Z,8.73
2018-01-19T12:05:43.631Z,9.80
2018-01-19T12:08:12.450Z,9.30
2018-01-19T12:10:40.648Z,10.10
2018-01-19T12:13:08.295Z,8.47
2018-01-19T12:15:35.811Z,8.70
2018-01-19T12:18:03.320Z,9.00
2018-01-19T12:20:30.829Z,8.33
2018-01-19T12:22:58.551Z,8.07
2018-01-19T12:25:26.135Z,9.17
2018-01-19T12:27:54.054Z,8.47
2018-01-19T12:30:22.128Z,7.63
2018-01-19T12:32:49.708Z,7.77
2018-01-19T12:35:17.166Z,6.97
2018-01-19T12:37:44.703Z,7.57
2018-01-19T12:40:12.264Z,7.97
2018-01-19T12:42:39.947Z,7.67
2018-01-19T12:45:07.960Z,7.67
2018-01-19T12:47:35.564Z,7.57
2018-01-19T12:50:03.327Z,7.23
2018-01-19T12:52:31.908Z,6.63
2018-01-19T12:54:59.663Z,6.27
2018-01-19T12:57:27.191Z,6.00
2018-01-19T12:59:56.084Z,6.63
2018-01-19T13:02:24.404Z,6.30
2018-01-19T13:04:51.932Z,5.90
2018-01-19T13:07:22.300Z,5.07
2018-01-19T13:09:49.803Z,6.07
2018-01-19T13:12:17.363Z,5.73
2018-01-19T13:14:44.970Z,6.53
2018-01-19T13:17:12.530Z,4.80
2018-01-19T13:19:41.430Z,5.73
2018-01-19T13:22:09.031Z,5.20
2018-01-19T13:24:36.816Z,4.67
2018-01-19T13:27:05.123Z,5.73
2018-01-19T13:29:32.856Z,5.60
2018-01-19T13:32:01.352Z,6.30
2018-01-19T13:34:29.042Z,5.90
2018-01-19T13:36:56.987Z,6.00
2018-01-19T13:39:24.537Z,4.63
2018-01-19T13:41:52.741Z,4.70
2018-01-19T13:44:20.368Z,5.57
2018-01-19T13:46:48.093Z,5.40
2018-01-19T13:49:15.991Z,5.83
2018-01-19T13:51:43.648Z,7.27
2018-01-19T13:54:11.117Z,4.80
2018-01-19T13:56:39.616Z,5.33
2018-01-19T13:59:07.488Z,4.60
2018-01-19T14:01:35.885Z,5.20
2018-01-19T14:04:03.607Z,5.20
2018-01-19T14:06:31.701Z,4.77
2018-01-19T14:08:59.531Z,4.80
2018-01-19T14:11:27.227Z,4.87
2018-01-19T14:13:55.567Z,6.07
2018-01-19T14:16:23.048Z,5.47
2018-01-19T14:18:51.417Z,5.83
2018-01-19T14:21:18.992Z,5.00
2018-01-19T14:23:46.823Z,5.17
2018-01-19T14:26:15.027Z,5.43
2018-01-19T14:28:42.556Z,6.47
2018-01-19T14:31:10.085Z,5.70
2018-01-19T14:33:37.704Z,6.07
2018-01-19T14:36:06.552Z,5.10
2018-01-19T14:38:34.082Z,5.17
2018-01-19T14:41:02.000Z,5.40
2018-01-19T14:43:29.835Z,5.90
2018-01-19T14:45:57.353Z,6.00
2018-01-19T14:48:26.200Z,5.97
2018-01-19T14:50:54.020Z,6.43
2018-01-19T14:53:23.308Z,6.47
2018-01-19T14:55:51.714Z,6.60
2018-01-19T14:58:20.070Z,6.60
2018-01-19T15:00:47.623Z,6.80
2018-01-19T15:03:15.134Z,6.77
2018-01-19T15:05:43.004Z,6.73
2018-01-19T15:08:11.557Z,6.53
2018-01-19T15:10:40.109Z,7.80
2018-01-19T15:13:07.683Z,6.47
2018-01-19T15:15:36.396Z,6.97
2018-01-19T15:18:03.994Z,6.07
2018-01-19T15:20:31.747Z,4.70
2018-01-19T15:22:59.364Z,3.90
2018-01-19T15:25:27.626Z,3.00
2018-01-19T15:27:55.246Z,4.23
2018-01-19T15:30:22.875Z,2.60
2018-01-19T15:32:51.365Z,2.40
2018-01-19T15:35:19.728Z,2.00
2018-01-19T15:37:48.150Z,2.90
2018-01-19T15:40:16.548Z,2.20
2018-01-19T15:42:44.122Z,3.00
2018-01-19T15:45:11.968Z,2.10
2018-01-19T15:47:39.481Z,3.00
2018-01-19T15:50:08.176Z,3.00
2018-01-19T15:52:35.727Z,2.40
2018-01-19T15:55:03.600Z,2.57
2018-01-19T15:57:32.058Z,2.83
2018-01-19T15:59:59.709Z,3.00
2018-01-19T16:02:27.215Z,3.20
2018-01-19T16:04:54.873Z,3.77
2018-01-19T16:07:23.199Z,4.40
2018-01-19T16:09:50.795Z,4.50
2018-01-19T16:12:19.092Z,5.00
2018-01-19T16:14:47.570Z,5.30
2018-01-19T16:17:15.540Z,5.50
2018-01-19T16:19:43.665Z,5.50
2018-01-19T16:22:11.208Z,4.50
2018-01-19T16:24:38.819Z,4.50
2018-01-19T16:27:07.474Z,5.10
2018-01-19T16:29:35.093Z,5.03
2018-01-19T16:32:03.777Z,5.20
2018-01-19T16:34:32.715Z,5.47
2018-01-19T16:37:00.600Z,5.67
2018-01-19T16:39:28.355Z,5.50
2018-01-19T16:41:56.020Z,6.33
2018-01-19T16:44:24.138Z,6.67
2018-01-19T16:46:52.708Z,6.33
2018-01-19T16:49:21.120Z,7.37
2018-01-19T16:51:48.611Z,7.67
2018-01-19T16:54:16.204Z,8.77
2018-01-19T16:56:43.973Z,11.37
2018-01-19T16:59:12.556Z,11.97
2018-01-19T17:01:40.168Z,9.30
2018-01-19T17:04:07.991Z,10.07
2018-01-19T17:06:35.536Z,8.23
2018-01-19T17:09:03.081Z,8.40
2018-01-19T17:11:30.816Z,7.67
2018-01-19T17:13:58.301Z,11.23
2018-01-19T17:16:26.053Z,8.77
2018-01-19T17:18:53.746Z,8.27
2018-01-19T17:21:21.258Z,9.17
2018-01-19T17:23:49.128Z,8.00
2018-01-19T17:26:16.651Z,8.10
2018-01-19T17:28:45.425Z,7.90
2018-01-19T17:31:13.488Z,7.60
2018-01-19T17:33:41.338Z,7.30
2018-01-19T17:36:08.840Z,7.93
2018-01-19T17:38:37.472Z,7.20
2018-01-19T17:41:05.607Z,7.40
2018-01-19T17:43:33.604Z,8.20
2018-01-19T17:46:01.928Z,8.80
2018-01-19T17:48:30.563Z,9.90
2018-01-19T17:50:58.081Z,9.90
2018-01-19T17:53:26.427Z,10.67
2018-01-19T17:55:54.025Z,11.57
2018-01-19T17:58:22.844Z,11.97
2018-01-19T18:00:51.442Z,11.00
2018-01-19T18:03:19.316Z,12.83
2018-01-19T18:05:47.015Z,10.77
2018-01-19T18:08:14.636Z,10.60
2018-01-19T18:10:42.560Z,10.20
2018-01-19T18:13:11.645Z,9.10
2018-01-19T18:15:39.132Z,9.73
2018-01-19T18:18:06.892Z,9.07
2018-01-19T18:20:35.192Z,9.00
2018-01-19T18:23:03.580Z,9.93
2018-01-19T18:25:31.172Z,10.03
2018-01-19T18:27:58.796Z,10.20
2018-01-19T18:30:26.716Z,6.20
2018-01-19T18:32:55.755Z,5.23
2018-01-19T18:35:25.088Z,5.33
2018-01-19T18:37:52.947Z,7.13
2018-01-19T18:40:21.589Z,7.50
2018-01-19T18:42:49.244Z,8.60
2018-01-19T18:45:17.815Z,12.17
2018-01-19T18:47:45.526Z,10.27
2018-01-19T18:50:13.361Z,9.77
2018-01-19T18:52:41.077Z,11.13
2018-01-19T18:55:10.731Z,10.90
2018-01-19T18:57:39.403Z,10.73
2018-01-19T19:00:07.889Z,13.20
2018-01-19T19:02:36.084Z,12.03
2018-01-19T19:05:04.938Z,11.10
2018-01-19T19:07:32.701Z,13.70
2018-01-19T19:10:00.549Z,13.20
2018-01-19T19:12:28.253Z,15.60
2018-01-19T19:14:55.721Z,13.50
2018-01-19T19:17:24.825Z,13.50
2018-01-19T19:19:54.972Z,13.97
2018-01-19T19:22:22.788Z,13.20
2018-01-19T19:24:50.355Z,14.40
2018-01-19T19:27:18.238Z,16.43
2018-01-19T19:29:46.936Z,17.50
2018-01-19T19:32:14.621Z,16.37
2018-01-19T19:34:42.412Z,16.17
2018-01-19T19:37:10.000Z,15.87
2018-01-19T19:39:37.744Z,15.27
2018-01-19T19:42:05.429Z,13.37
2018-01-19T19:44:33.449Z,14.00
2018-01-19T19:47:00.960Z,13.97
2018-01-19T19:49:28.464Z,13.77
2018-01-19T19:51:56.125Z,13.20
2018-01-19T19:54:23.791Z,13.50
2018-01-19T19:56:56.109Z,12.47
2018-01-19T19:59:23.671Z,14.17
2018-01-19T20:01:51.715Z,15.10
2018-01-19T20:04:21.315Z,13.10
2018-01-19T20:06:49.581Z,13.93
2018-01-19T20:09:17.063Z,13.90
2018-01-19T20:11:46.441Z,12.67
2018-01-19T20:14:14.384Z,13.40
2018-01-19T20:16:42.754Z,14.73
2018-01-19T20:19:10.988Z,14.70
2018-01-19T20:21:38.989Z,13.30
2018-01-19T20:24:06.584Z,14.50
2018-01-19T20:26:34.236Z,15.27
2018-01-19T20:29:02.744Z,13.63
2018-01-19T20:31:30.309Z,12.80
2018-01-19T20:33:57.952Z,11.40
2018-01-19T20:36:25.605Z,11.93
2018-01-19T20:38:54.406Z,10.47
2018-01-19T20:41:22.372Z,10.80
2018-01-19T20:43:49.862Z,10.70
2018-01-19T20:46:18.568Z,10.57
2018-01-19T20:48:47.217Z,9.60
2018-01-19T20:51:15.031Z,10.87
2018-01-19T20:53:43.846Z,10.57
2018-01-19T20:56:11.405Z,10.43
2018-01-19T20:58:39.712Z,11.60
2018-01-19T21:01:08.192Z,12.03
2018-01-19T21:03:35.697Z,12.07
2018-01-19T21:06:04.183Z,10.73
2018-01-19T21:08:31.894Z,11.93
2018-01-19T21:10:59.990Z,10.93
2018-01-19T21:13:28.613Z,11.27
2018-01-19T21:15:56.692Z,10.67
2018-01-19T21:18:24.928Z,11.30
2018-01-19T21:20:52.724Z,11.33
2018-01-19T21:23:21.180Z,11.07
2018-01-19T21:25:48.854Z,11.70
2018-01-19T21:28:17.910Z,11.10
2018-01-19T21:30:45.943Z,12.03
2018-01-19T21:33:13.985Z,12.20
2018-01-19T21:35:41.731Z,12.47
2018-01-19T21:38:09.960Z,11.97
2018-01-19T21:40:38.550Z,12.77
2018-01-19T21:43:06.162Z,11.30
2018-01-19T21:45:34.980Z,12.13
2018-01-19T21:48:03.739Z,12.80
2018-01-19T21:50:31.580Z,11.60
2018-01-19T21:53:00.083Z,10.80
2018-01-19T21:55:27.895Z,11.23
2018-01-19T21:57:56.395Z,10.43
2018-01-19T22:00:24.698Z,10.43
2018-01-19T22:02:52.542Z,10.40
2018-01-19T22:05:20.357Z,10.40
2018-01-19T22:07:48.064Z,10.83
2018-01-19T22:10:15.964Z,11.13
2018-01-19T22:12:44.959Z,10.83
2018-01-19T22:15:12.469Z,10.90
2018-01-19T22:17:40.751Z,12.33
2018-01-19T22:20:08.860Z,12.23
2018-01-19T22:22:36.631Z,11.50
2018-01-19T22:25:04.172Z,10.47
2018-01-19T22:27:31.666Z,11.60
2018-01-19T22:29:59.689Z,11.20
2018-01-19T22:32:27.667Z,10.63
2018-01-19T22:35:00.791Z,11.53
2018-01-19T22:37:28.300Z,10.33
2018-01-19T22:39:56.773Z,11.17
2018-01-19T22:42:25.424Z,9.50
2018-01-19T22:44:52.983Z,10.13
2018-01-19T22:47:20.629Z,9.83
2018-01-19T22:49:48.537Z,11.03
2018-01-19T22:52:16.525Z,9.60
2018-01-19T22:54:44.143Z,10.70
2018-01-19T22:57:11.699Z,10.57
2018-01-19T22:59:39.564Z,10.67
2018-01-19T23:02:07.985Z,10.37
2018-01-19T23:04:36.557Z,10.50
2018-01-19T23:07:04.451Z,10.47
2018-01-19T23:09:32.021Z,10.13
2018-01-19T23:12:00.393Z,9.47
2018-01-19T23:14:29.288Z,10.10
2018-01-19T23:16:57.649Z,9.80
2018-01-19T23:19:25.401Z,11.03
2018-01-19T23:21:53.402Z,10.60
2018-01-19T23:24:21.689Z,11.20
2018-01-19T23:26:49.940Z,11.30
2018-01-19T23:29:17.468Z,10.30
2018-01-19T23:31:45.176Z,11.33
2018-01-19T23:34:12.802Z,9.53
2018-01-19T23:36:40.432Z,9.70
2018-01-19T23:39:08.046Z,10.97
2018-01-19T23:41:35.614Z,10.20
2018-01-19T23:44:03.398Z,10.60
2018-01-19T23:46:32.183Z,11.23
2018-01-19T23:49:01.159Z,10.37
2018-01-19T23:51:28.949Z,10.23
2018-01-19T23:53:56.768Z,9.30
2018-01-19T23:56:24.568Z,9.73
2018-01-19T23:58:52.941Z,10.50
